Pasadena 2N

39° 08' 31"N, 76° 30' 27"W, Elevation 43 ft.
Eastern Time

Hourly observations for the last 72 hours

Date Time Temperature (°F) Humi-
dity

(%)
Wind
(mph)
Pressure Rain (in) Sun
(W/m2)
ET
(in)
Air Dew 6 Hour 1 Hr 3 Hr 6 Hr Day
Alt
(in)
Sea
Level

(mb)
Max Min
22 14:00 96.6 79.4 97.3 77.2 58 ESE 3 G 9 29.94 1013.8 0.00 257 0.069
22 13:00 96.0 78.3 57 ESE 3 G 8 29.97 1015.0 0.00 856 0.045
22 12:00 93.9 78.9 62 WNW 1 G 6 29.99 1015.6 0.00 817 0.023
22 11:00 89.6 77.2 67 SE 2 G 6 30.00 1016.0 0.00 733 0.012
22 10:00 84.3 74.7 73 S 2 G 4 30.02 1016.7 0.00 83 0.009
22 09:00 80.6 72.7 77 SSW 3 G 6 30.04 1017.2 0.00 69 0.007
22 08:00 77.2 71.6 77.2 72.8 83 ESE 1 G 4 30.04 1017.2 0.00 58 0.006
22 07:00 74.2 70.4 88 S 1 G 4 30.04 1017.3 0.00 40 0.005
22 06:00 72.9 69.5 89 E 0 G 1 30.04 1017.3 0.00 9 0.005
22 05:00 73.8 70.0 88 E 0 G 1 30.04 1017.3 0.00 0 0.004
22 04:00 75.6 70.8 85 E 1 G 4 30.04 1017.3 0.00 0 0.003
22 03:00 76.2 71.4 85 ESE 2 G 7 30.05 1017.5 0.00 0 0.002
22 02:00 76.4 72.2 82.6 76.4 87 ESE 2 G 4 30.06 1018.1 0.00 0 0.001
22 01:00 77.1 72.9 87 SE 1 G 5 30.07 1018.4 0.00 0 0.000
22 00:00 77.6 73.1 86 ESE 3 G 7 30.07 1018.4 0.00 0 0.192
21 23:00 78.0 72.4 83 ESE 1 G 6 30.08 1018.6 0.00 0 0.191
21 22:00 79.1 72.0 79 SE 2 G 6 30.08 1018.6 0.00 0 0.190
21 21:00 80.4 71.8 75 ESE 4 G 9 30.06 1017.9 0.00 0 0.189
21 20:00 82.6 72.7 94.8 82.6 72 SE 4 G 12 30.05 1017.7 0.00 16 0.187
21 19:00 85.8 72.7 65 E 6 G 14 30.06 1017.8 0.00 47 0.178
21 18:00 90.2 74.0 59 ESE 6 G 14 30.05 1017.8 0.00 404 0.163
21 17:00 92.2 74.8 57 ENE 4 G 12 30.07 1018.2 0.00 585 0.143
21 16:00 92.1 75.2 58 ESE 4 G 14 30.08 1018.8 0.00 731 0.120
21 15:00 93.4 76.4 58 SE 4 G 11 30.11 1019.6 0.00 851 0.094
21 14:00 94.5 73.6 94.5 73.2 51 S 3 G 7 30.13 1020.2 0.00 916 0.068
21 13:00 93.0 75.0 56 SE 3 G 9 30.15 1021.0 0.00 940 0.042
21 12:00 90.1 74.4 60 W 4 G 8 30.18 1021.9 0.00 870 0.019
21 11:00 86.1 74.3 68 WSW 2 G 6 30.18 1022.0 0.00 775 0.008
21 10:00 80.9 72.2 75 WSW 2 G 5 30.19 1022.4 0.00 53 0.006
21 09:00 77.1 71.2 82 SSE 1 G 4 30.19 1022.5 0.00 46 0.005
21 08:00 73.2 69.8 73.2 66.8 89 S 0 G 2 30.20 1022.9 0.00 39 0.004
21 07:00 69.2 67.1 93 E 0 G 4 30.20 1022.8 0.00 30 0.003
21 06:00 67.1 65.3 94 ESE 1 G 4 30.20 1022.8 0.00 9 0.003
21 05:00 67.3 64.9 92 Calm 30.20 1022.7 0.00 0 0.003
21 04:00 68.5 65.5 90 Calm 30.21 1023.0 0.00 0 0.003
21 03:00 69.9 65.9 87 Calm 30.21 1023.1 0.00 0 0.002
21 02:00 71.3 66.6 81.1 71.3 85 SE 1 G 3 30.22 1023.5 0.00 0 0.001
21 01:00 72.6 67.1 83 SE 1 G 4 30.22 1023.5 0.00 0 0.000
21 00:00 73.7 67.9 82 E 1 G 4 30.23 1023.7 0.00 0 0.176
20 23:00 74.6 67.7 79 SE 1 G 4 30.23 1023.7 0.00 0 0.175
20 22:00 76.2 68.5 77 ESE 2 G 5 30.22 1023.5 0.00 0 0.174
20 21:00 78.1 67.9 71 ESE 1 G 4 30.21 1023.0 0.00 0 0.173
20 20:00 81.1 67.8 89.7 81.1 64 SE 2 G 8 30.21 1023.2 0.00 32 0.171
20 19:00 84.1 69.2 61 ESE 4 G 9 30.22 1023.3 0.00 42 0.163
20 18:00 87.3 70.7 58 E 5 G 11 30.22 1023.4 0.00 415 0.148
20 17:00 88.1 69.9 55 ESE 5 G 9 30.24 1024.0 0.00 624 0.130
20 16:00 87.7 68.5 53 SE 5 G 12 30.25 1024.6 0.00 793 0.110
20 15:00 89.3 72.6 58 SE 5 G 14 30.28 1025.3 0.00 765 0.085
20 14:00 87.9 72.8 88.7 73.0 61 E 4 G 12 30.29 1025.7 0.00 1011 0.061
20 13:00 86.9 72.3 62 E 4 G 13 30.30 1026.0 0.00 190 0.039
20 12:00 86.6 72.0 62 ESE 2 G 7 30.31 1026.5 0.00 867 0.018
20 11:00 82.9 73.0 72 E 2 G 9 30.32 1026.7 0.00 789 0.008
20 10:00 78.5 71.5 79 SE 2 G 5 30.33 1027.0 0.00 104 0.005
20 09:00 76.0 70.8 84 ESE 1 G 6 30.33 1027.0 0.00 86 0.003
20 08:00 73.0 70.5 73.1 66.4 92 SE 2 G 5 30.32 1026.9 0.00 88 0.002
20 07:00 68.1 66.6 95 SE 0 G 1 30.31 1026.5 0.00 33 0.002
20 06:00 66.5 64.7 94 ESE 0 G 1 30.30 1026.2 0.00 12 0.002
20 05:00 66.8 64.7 93 Calm 30.30 1026.1 0.00 0 0.002
20 04:00 67.7 65.3 92 Calm 30.30 1026.0 0.00 0 0.002
20 03:00 69.1 66.0 90 Calm 30.29 1025.8 0.00 0 0.002
20 02:00 71.0 66.9 77.9 71.0 87 Calm 30.29 1025.7 0.00 0 0.001
20 01:00 72.8 68.0 85 SE 0 G 4 30.29 1025.9 0.00 0 0.000
20 00:00 74.5 69.0 83 SE 4 G 8 30.31 1026.3 0.00 0 0.188
19 23:00 75.5 68.9 80 SE 2 G 7 30.31 1026.3 0.00 0 0.187
19 22:00 75.2 67.1 76 ESE 4 G 9 30.30 1026.1 0.00 0 0.186
19 21:00 74.7 63.0 67 SE 1 G 3 30.28 1025.4 0.00 0 0.185
19 20:00 77.9 58.3 89.8 77.9 51 SE 0 G 2 30.27 1025.1 0.00 14 0.184
19 19:00 83.7 58.9 43 SE 2 G 4 30.27 1025.0 0.00 42 0.175
19 18:00 87.5 64.8 47 ESE 5 G 11 30.27 1025.2 0.00 415 0.159
19 17:00 89.1 66.3 47 SE 2 G 9 30.28 1025.6 0.00 591 0.139
19 16:00 89.3 58.9 36 ENE 2 G 8 30.29 1025.8 0.00 758 0.115
19 15:00 87.8 65.7 48 E 5 G 11 30.30 1026.1 0.00 863 0.090

Data generated by WxSolution Version 1.9.1.8, Build 2020.02.16.